createdAt,value
2023-05-09T00:01:57.436Z,101282.13
2023-05-09T00:04:02.739Z,101288.63
2023-05-09T00:06:07.921Z,101287.41
2023-05-09T00:08:13.080Z,101282.27
2023-05-09T00:10:18.166Z,101284.8
2023-05-09T00:12:23.274Z,101284.27
2023-05-09T00:14:28.367Z,101281.63
2023-05-09T00:16:33.504Z,101280.84
2023-05-09T00:18:38.753Z,101276.9
2023-05-09T00:20:43.867Z,101269.47
2023-05-09T00:22:48.964Z,101269.44
2023-05-09T00:24:54.035Z,101264.56
2023-05-09T00:26:59.121Z,101266.05
2023-05-09T00:29:04.249Z,101267.95
2023-05-09T00:31:09.313Z,101264.7
2023-05-09T00:33:14.481Z,101264.57
2023-05-09T00:35:19.548Z,101260.95
2023-05-09T00:37:24.850Z,101256.61
2023-05-09T00:39:29.910Z,101254.56
2023-05-09T00:41:35.001Z,101252.88
2023-05-09T00:43:40.262Z,101251.02
2023-05-09T00:45:45.494Z,101250.5
2023-05-09T00:47:50.712Z,101249.27
2023-05-09T00:49:55.948Z,101253.42
2023-05-09T00:52:01.008Z,101247.34
2023-05-09T00:54:09.317Z,101255.53
2023-05-09T00:56:14.613Z,101252.24
2023-05-09T00:58:19.708Z,101248.6
2023-05-09T01:00:24.927Z,101249.38
2023-05-09T01:02:30.203Z,101252.57
2023-05-09T01:04:35.578Z,101242.99
2023-05-09T01:06:40.697Z,101245.25
2023-05-09T01:08:45.770Z,101243.89
2023-05-09T01:10:50.880Z,101242.28
2023-05-09T01:12:56.093Z,101235.86
2023-05-09T01:15:01.420Z,101233.08
2023-05-09T01:17:06.500Z,101234.06
2023-05-09T01:19:11.627Z,101231.56
2023-05-09T01:21:16.709Z,101229.5
2023-05-09T01:23:21.806Z,101232.32
2023-05-09T01:25:27.010Z,101221.51
2023-05-09T01:27:32.090Z,101221.5
2023-05-09T01:29:37.181Z,101218.13
2023-05-09T01:31:42.405Z,101219.88
2023-05-09T01:33:47.628Z,101220.66
2023-05-09T01:35:52.649Z,101220.81
2023-05-09T01:37:57.716Z,101221.05
2023-05-09T01:40:02.833Z,101225.2
2023-05-09T01:42:07.909Z,101225.5
2023-05-09T01:44:13.123Z,101222.29
2023-05-09T01:46:18.561Z,101223.06
2023-05-09T01:48:23.643Z,101216.66
2023-05-09T01:50:28.719Z,101217.78
2023-05-09T01:52:33.783Z,101217.7
2023-05-09T01:54:38.854Z,101220.52
2023-05-09T01:56:43.974Z,101218.45
2023-05-09T01:58:49.072Z,101219.31
2023-05-09T02:00:54.255Z,101222.52
2023-05-09T02:02:59.500Z,101219.2
2023-05-09T02:05:04.713Z,101219.13
2023-05-09T02:07:09.765Z,101215.77
2023-05-09T02:09:14.907Z,101221.17
2023-05-09T02:11:19.940Z,101220.1
2023-05-09T02:13:25.420Z,101218.98
2023-05-09T02:15:30.653Z,101216.64
2023-05-09T02:17:35.942Z,101220.48
2023-05-09T02:19:41.118Z,101214.46
2023-05-09T02:21:46.141Z,101210.95
2023-05-09T02:23:51.261Z,101205.7
2023-05-09T02:25:56.355Z,101203.2
2023-05-09T02:28:01.517Z,101208.28
2023-05-09T02:30:06.554Z,101208.74
2023-05-09T02:32:11.881Z,101212
2023-05-09T02:34:17.077Z,101212.4
2023-05-09T02:36:22.213Z,101203.27
2023-05-09T02:38:27.303Z,101204.52
2023-05-09T02:40:32.477Z,101202.33
2023-05-09T02:42:37.534Z,101198.98
2023-05-09T02:44:42.608Z,101202.06
2023-05-09T02:46:47.687Z,101199.63
2023-05-09T02:48:52.741Z,101194.95
2023-05-09T02:50:57.799Z,101192.88
2023-05-09T02:53:02.832Z,101193.04
2023-05-09T02:55:07.881Z,101192.6
2023-05-09T02:57:12.974Z,101194.66
2023-05-09T02:59:18.060Z,101193.02
2023-05-09T03:01:23.287Z,101188.95
2023-05-09T03:03:28.729Z,101193.05
2023-05-09T03:05:34.043Z,101192.06
2023-05-09T03:07:39.121Z,101189.23
2023-05-09T03:09:44.236Z,101187.32
2023-05-09T03:11:49.275Z,101189.95
2023-05-09T03:13:54.330Z,101183.86
2023-05-09T03:15:59.460Z,101179.86
2023-05-09T03:18:04.736Z,101182.27
2023-05-09T03:20:10.170Z,101183.06
2023-05-09T03:22:15.230Z,101180.95
2023-05-09T03:24:20.371Z,101177
2023-05-09T03:26:25.466Z,101178.91
2023-05-09T03:28:30.671Z,101176.76
2023-05-09T03:30:35.775Z,101178.22
2023-05-09T03:32:41.034Z,101175.53
2023-05-09T03:35:39.068Z,101173.07
2023-05-09T03:37:44.152Z,101175.34
2023-05-09T03:39:49.298Z,101173.64
2023-05-09T03:41:54.498Z,101165.86
2023-05-09T03:43:59.531Z,101168.2
2023-05-09T03:46:04.654Z,101167.92
2023-05-09T03:48:09.874Z,101166.42
2023-05-09T03:50:15.124Z,101170.81
2023-05-09T03:52:20.195Z,101168.49
2023-05-09T03:54:25.323Z,101169.74
2023-05-09T03:56:30.412Z,101172.14
2023-05-09T03:58:35.505Z,101170.12
2023-05-09T04:00:40.620Z,101178.1
2023-05-09T04:02:45.751Z,101174.54
2023-05-09T04:04:51.146Z,101173.34
2023-05-09T04:06:56.180Z,101173.25
2023-05-09T04:09:01.327Z,101168.44
2023-05-09T04:11:06.406Z,101171.23
2023-05-09T04:13:11.665Z,101174.75
2023-05-09T04:15:17.291Z,101168.88
2023-05-09T04:17:22.414Z,101182.41
2023-05-09T04:19:27.487Z,101182.69
2023-05-09T04:21:32.600Z,101186.08
2023-05-09T04:23:37.772Z,101185.84
2023-05-09T04:25:43.121Z,101182.06
2023-05-09T04:27:48.196Z,101180.55
2023-05-09T04:29:53.268Z,101179.23
2023-05-09T04:31:58.832Z,101182.6
2023-05-09T04:34:04.161Z,101177.91
2023-05-09T04:36:09.260Z,101188.57
2023-05-09T04:38:14.294Z,101179.72
2023-05-09T04:40:19.439Z,101176.4
2023-05-09T04:42:24.498Z,101179.79
2023-05-09T04:44:29.594Z,101177.88
2023-05-09T04:46:34.794Z,101178.17
2023-05-09T04:48:39.975Z,101182.67
2023-05-09T04:50:45.126Z,101183.27
2023-05-09T04:52:50.248Z,101180.48
2023-05-09T04:54:55.337Z,101178.09
2023-05-09T04:57:18.229Z,101175.56
2023-05-09T04:59:23.988Z,101183.21
2023-05-09T05:01:29.256Z,101172.39
2023-05-09T05:03:34.485Z,101166.48
2023-05-09T05:05:39.817Z,101170.25
2023-05-09T05:07:45.106Z,101169.67
2023-05-09T05:09:50.275Z,101164.39
2023-05-09T05:12:04.294Z,101166.34
2023-05-09T05:14:13.016Z,101162.98
2023-05-09T05:16:18.170Z,101164.02
2023-05-09T05:18:23.474Z,101168.88
2023-05-09T05:20:28.544Z,101163.73
2023-05-09T05:22:34.147Z,101161.61
2023-05-09T05:24:39.659Z,101167.13
2023-05-09T05:26:44.717Z,101167.55
2023-05-09T05:28:49.912Z,101169.03
2023-05-09T05:30:54.999Z,101169.54
2023-05-09T05:33:00.219Z,101167.79
2023-05-09T05:35:05.372Z,101170
2023-05-09T05:37:10.802Z,101168.55
2023-05-09T05:39:15.850Z,101169.06
2023-05-09T05:41:21.074Z,101160.55
2023-05-09T05:43:26.122Z,101157.94
2023-05-09T05:45:31.460Z,101165.39
2023-05-09T05:47:36.897Z,101162.31
2023-05-09T05:49:42.727Z,101156.52
2023-05-09T05:51:47.760Z,101157.08
2023-05-09T05:53:52.922Z,101152.2
2023-05-09T05:55:58.095Z,101157.09
2023-05-09T05:58:03.158Z,101150.86
2023-05-09T06:00:08.639Z,101154.24
2023-05-09T06:02:13.905Z,101156.26
2023-05-09T06:04:19.291Z,101148.35
2023-05-09T06:06:24.469Z,101144.74
2023-05-09T06:08:29.637Z,101143.17
2023-05-09T06:10:34.802Z,101147.47
2023-05-09T06:12:39.907Z,101138.44
2023-05-09T06:14:45.034Z,101138.78
2023-05-09T06:16:50.176Z,101131.85
2023-05-09T06:18:57.359Z,101133.46
2023-05-09T06:21:02.409Z,101137.23
2023-05-09T06:23:07.633Z,101134.64
2023-05-09T06:25:12.928Z,101134.24
2023-05-09T06:27:18.500Z,101135.3
2023-05-09T06:29:23.626Z,101135.92
2023-05-09T06:31:28.805Z,101138.2
2023-05-09T06:33:33.997Z,101138.66
2023-05-09T06:35:39.140Z,101144.16
2023-05-09T06:37:45.139Z,101133.32
2023-05-09T06:39:53.000Z,101128.84
2023-05-09T06:41:58.045Z,101127.59
2023-05-09T06:44:03.111Z,101124.98
2023-05-09T06:46:08.365Z,101120.53
2023-05-09T06:48:13.471Z,101121.56
2023-05-09T06:50:18.604Z,101122.62
2023-05-09T06:52:23.766Z,101115.06
2023-05-09T06:54:29.109Z,101111.66
2023-05-09T06:56:34.554Z,101118.24
2023-05-09T06:58:39.919Z,101114.63
2023-05-09T07:00:44.999Z,101119.09
2023-05-09T07:02:50.193Z,101103.19
2023-05-09T07:04:55.440Z,101118.72
2023-05-09T07:07:00.793Z,101116.2
2023-05-09T07:09:06.110Z,101117.13
2023-05-09T07:11:11.198Z,101121.05
2023-05-09T07:13:16.495Z,101123.2
2023-05-09T07:15:41.695Z,101120.75
2023-05-09T07:17:48.116Z,101120.56
2023-05-09T07:19:53.366Z,101109.61
2023-05-09T07:21:58.515Z,101099.64
2023-05-09T07:24:03.558Z,101107.86
2023-05-09T07:26:08.684Z,101104.89
2023-05-09T07:28:13.788Z,101096.77
2023-05-09T07:30:18.996Z,101092.98
2023-05-09T07:32:24.218Z,101091.98
2023-05-09T07:34:29.334Z,101078.59
2023-05-09T07:38:44.715Z,101072.91
2023-05-09T07:40:49.756Z,101070.3
2023-05-09T07:42:54.860Z,101075.03
2023-05-09T07:45:00.021Z,101071.92
2023-05-09T07:47:05.183Z,101080.52
2023-05-09T07:49:10.374Z,101064.96
2023-05-09T07:51:15.577Z,101063.18
2023-05-09T07:53:21.205Z,101060.78
2023-05-09T07:55:26.348Z,101057.11
2023-05-09T07:57:31.422Z,101061.28
2023-05-09T07:59:36.474Z,101060.98
2023-05-09T08:01:41.633Z,101062.5
2023-05-09T08:03:46.806Z,101058.97
2023-05-09T08:05:52.216Z,101053.52
2023-05-09T08:07:57.447Z,101047.28
2023-05-09T08:10:02.527Z,101042.03
2023-05-09T08:12:07.645Z,101048.09
2023-05-09T08:14:15.020Z,101023.56
2023-05-09T08:16:20.801Z,101037.25
2023-05-09T08:18:26.065Z,101030.44
2023-05-09T08:20:31.124Z,101031.61
2023-05-09T08:22:36.198Z,101028.65
2023-05-09T08:24:41.282Z,101030.81
2023-05-09T08:26:46.358Z,101028.93
2023-05-09T08:28:51.433Z,101018.73
2023-05-09T08:30:56.611Z,101021.84
2023-05-09T08:33:02.031Z,101019.06
2023-05-09T08:35:07.198Z,101013.79
2023-05-09T08:37:15.776Z,101010.56
2023-05-09T08:39:20.872Z,101006.91
2023-05-09T08:41:26.028Z,101008.04
2023-05-09T08:43:31.088Z,101008.25
2023-05-09T08:45:36.336Z,101002.06
2023-05-09T08:47:41.743Z,100999.05
2023-05-09T08:49:46.948Z,101002.2
2023-05-09T08:51:52.086Z,100994.11
2023-05-09T08:53:57.146Z,100980.24
2023-05-09T08:56:02.283Z,100987.23
2023-05-09T08:58:07.613Z,100981.64
2023-05-09T09:00:12.870Z,100977.89
2023-05-09T09:02:19.874Z,100984.14
2023-05-09T09:04:25.081Z,100979.01
2023-05-09T09:06:30.205Z,100990.52
2023-05-09T09:08:35.255Z,100982.83
2023-05-09T09:10:40.366Z,100971.38
2023-05-09T09:12:45.741Z,100973.26
2023-05-09T09:14:54.138Z,100965.81
2023-05-09T09:16:59.595Z,100960.34
2023-05-09T09:19:04.822Z,100958.56
2023-05-09T09:21:09.988Z,100968.25
2023-05-09T09:23:15.070Z,100982.92
2023-05-09T09:25:20.114Z,100967.33
2023-05-09T09:27:25.375Z,100956.85
2023-05-09T09:29:30.456Z,100945.19
2023-05-09T09:31:35.552Z,100948.48
2023-05-09T09:33:40.722Z,100945.76
2023-05-09T09:35:45.813Z,100941.63
2023-05-09T09:37:51.009Z,100950.07
2023-05-09T09:39:56.103Z,100952.1
2023-05-09T09:42:01.342Z,100952.5
2023-05-09T09:44:06.460Z,100956.55
2023-05-09T09:46:11.888Z,100964.56
2023-05-09T09:48:17.150Z,100956.77
2023-05-09T09:50:22.278Z,100937.09
2023-05-09T09:52:27.607Z,100940.89
2023-05-09T09:54:32.703Z,100936.22
2023-05-09T09:56:37.965Z,100931.02
2023-05-09T09:58:42.999Z,100937.3
2023-05-09T10:00:48.321Z,100955.69
2023-05-09T10:02:53.600Z,100935.69
2023-05-09T10:04:58.786Z,100927.45
2023-05-09T10:07:03.904Z,100923.7
2023-05-09T10:09:09.189Z,100921.47
2023-05-09T10:11:14.389Z,100916.59
2023-05-09T10:13:19.700Z,100923.86
2023-05-09T10:15:24.920Z,100910.72
2023-05-09T10:17:30.308Z,100904.38
2023-05-09T10:19:35.783Z,100919.98
2023-05-09T10:21:40.928Z,100918.53
2023-05-09T10:23:46.027Z,100916.05
2023-05-09T10:25:51.203Z,100918.92
2023-05-09T10:27:56.277Z,100912.12
2023-05-09T10:30:01.412Z,100909.3
2023-05-09T10:32:06.550Z,100913.3
2023-05-09T10:34:11.760Z,100909.06
2023-05-09T10:36:16.976Z,100895.5
2023-05-09T10:38:22.058Z,100884.69
2023-05-09T10:40:27.210Z,100888.91
2023-05-09T10:42:32.325Z,100888.97
2023-05-09T10:44:37.616Z,100875.94
2023-05-09T10:46:43.047Z,100867.77
2023-05-09T10:48:48.357Z,100856.2
2023-05-09T10:50:53.771Z,100873.4
2023-05-09T10:52:58.799Z,100857.05
2023-05-09T10:55:03.887Z,100852.05
2023-05-09T10:57:09.001Z,100840.09
2023-05-09T10:59:14.078Z,100864.23
2023-05-09T11:01:19.311Z,100850.18
2023-05-09T11:03:24.733Z,100844.19
2023-05-09T11:05:30.145Z,100844.95
2023-05-09T11:07:35.243Z,100848.76
2023-05-09T11:09:40.459Z,100849.03
2023-05-09T11:11:45.715Z,100832.53
2023-05-09T11:13:50.912Z,100839.55
2023-05-09T11:15:56.107Z,100834.91
2023-05-09T11:18:01.514Z,100830.58
2023-05-09T11:20:06.848Z,100835.89
2023-05-09T11:22:11.995Z,100831.19
2023-05-09T11:24:17.180Z,100836.52
2023-05-09T11:26:22.358Z,100819.54
2023-05-09T11:28:27.602Z,100816.75
2023-05-09T11:30:32.734Z,100809.09
2023-05-09T11:32:37.901Z,100811.71
2023-05-09T11:34:43.197Z,100802.72
2023-05-09T11:36:48.377Z,100794.48
2023-05-09T11:38:53.449Z,100790.16
2023-05-09T11:40:58.500Z,100786.23
2023-05-09T11:43:03.747Z,100793.45
2023-05-09T11:45:08.814Z,100793.01
2023-05-09T11:47:14.029Z,100790.38
2023-05-09T11:49:19.179Z,100769.17
2023-05-09T11:51:24.429Z,100773.88
2023-05-09T11:53:29.739Z,100783.48
2023-05-09T11:55:34.820Z,100785.77
2023-05-09T11:57:39.987Z,100778.59
2023-05-09T11:59:45.186Z,100771.56
2023-05-09T12:01:50.343Z,100773.27
2023-05-09T12:03:55.756Z,100761.27
2023-05-09T12:06:00.969Z,100764.51
2023-05-09T12:08:06.105Z,100761.21
2023-05-09T12:10:11.323Z,100763.02
2023-05-09T12:12:16.414Z,100749.84
2023-05-09T12:14:21.576Z,100754.62
2023-05-09T12:16:26.868Z,100753.39
2023-05-09T12:18:32.087Z,100752.2
2023-05-09T12:20:37.365Z,100747.02
2023-05-09T12:22:42.484Z,100743.92
2023-05-09T12:24:47.545Z,100740.2
2023-05-09T12:26:52.647Z,100733.45
2023-05-09T12:28:57.748Z,100726.09
2023-05-09T12:31:03.028Z,100728.92
2023-05-09T12:33:08.269Z,100726.81
2023-05-09T12:35:13.913Z,100725.17
2023-05-09T12:37:19.756Z,100724.33
2023-05-09T12:39:24.851Z,100723.61
2023-05-09T12:41:50.082Z,100720.95
2023-05-09T12:44:06.205Z,100729.7
2023-05-09T12:46:11.634Z,100721.02
2023-05-09T12:48:16.960Z,100722.23
2023-05-09T12:50:22.028Z,100700.81
2023-05-09T12:52:27.138Z,100712.14
2023-05-09T12:54:32.262Z,100704.98
2023-05-09T12:56:37.481Z,100688.5
2023-05-09T12:58:42.617Z,100689.48
2023-05-09T13:00:47.900Z,100688.8
2023-05-09T13:02:53.313Z,100694.27
2023-05-09T13:04:58.970Z,100692.63
2023-05-09T13:07:04.061Z,100682.57
2023-05-09T13:09:09.214Z,100674.73
2023-05-09T13:11:17.945Z,100667.92
2023-05-09T13:13:23.444Z,100681.01
2023-05-09T13:15:28.787Z,100661.34
2023-05-09T13:17:34.053Z,100659.47
2023-05-09T13:19:39.249Z,100653.23
2023-05-09T13:21:44.504Z,100653.38
2023-05-09T13:23:49.589Z,100641.65
2023-05-09T13:25:54.733Z,100641.58
2023-05-09T13:28:00.000Z,100651.62
2023-05-09T13:30:05.251Z,100653.11
2023-05-09T13:32:10.375Z,100655.43
2023-05-09T13:34:15.482Z,100640.75
2023-05-09T13:36:20.568Z,100641.09
2023-05-09T13:38:25.747Z,100653.41
2023-05-09T13:40:30.908Z,100636.09
2023-05-09T13:42:36.139Z,100682.13
2023-05-09T13:44:41.262Z,100636.64
2023-05-09T13:46:46.777Z,100656.16
2023-05-09T13:48:52.010Z,100624.34
2023-05-09T13:50:57.332Z,100608.59
2023-05-09T13:53:02.625Z,100616.46
2023-05-09T13:55:07.835Z,100614.38
2023-05-09T13:57:12.996Z,100611.86
2023-05-09T13:59:18.062Z,100660.01
2023-05-09T14:01:23.333Z,100610.86
2023-05-09T14:03:28.772Z,100607.97
2023-05-09T14:05:34.005Z,100619.11
2023-05-09T14:07:39.076Z,100614.06
2023-05-09T14:09:44.157Z,100606.88
2023-05-09T14:11:49.315Z,100611.95
2023-05-09T14:13:54.429Z,100590.61
2023-05-09T14:15:59.621Z,100567.71
2023-05-09T14:18:05.036Z,100602.2
2023-05-09T14:20:10.313Z,100590.6
2023-05-09T14:22:15.428Z,100584.09
2023-05-09T14:24:20.532Z,100576.11
2023-05-09T14:26:25.783Z,100576.67
2023-05-09T14:28:30.859Z,100583.25
2023-05-09T14:30:36.286Z,100575.41
2023-05-09T14:32:41.460Z,100573.03
2023-05-09T14:34:46.612Z,100566
2023-05-09T14:36:51.813Z,100569.43
2023-05-09T14:38:57.004Z,100574.13
2023-05-09T14:41:02.244Z,100562.41
2023-05-09T14:43:07.563Z,100564.23
2023-05-09T14:45:12.729Z,100560.59
2023-05-09T14:47:17.958Z,100557.9
2023-05-09T14:49:23.137Z,100554.9
2023-05-09T14:51:28.242Z,100546.91
2023-05-09T14:53:33.330Z,100546.44
2023-05-09T14:55:38.441Z,100551.66
2023-05-09T14:57:43.593Z,100549.84
2023-05-09T14:59:48.767Z,100540.02
2023-05-09T15:01:53.899Z,100530.77
2023-05-09T15:03:59.196Z,100534.46
2023-05-09T15:06:04.546Z,100518.02
2023-05-09T15:08:09.672Z,100527.29
2023-05-09T15:10:15.218Z,100523.08
2023-05-09T15:12:21.139Z,100529.09
2023-05-09T15:14:26.172Z,100531.33
2023-05-09T15:16:32.065Z,100531.96
2023-05-09T15:18:37.302Z,100519.7
2023-05-09T15:20:42.444Z,100516.45
2023-05-09T15:22:47.655Z,100514.09
2023-05-09T15:24:52.986Z,100509.33
2023-05-09T15:26:58.358Z,100522.54
2023-05-09T15:29:03.467Z,100507.34
2023-05-09T15:31:08.726Z,100507.77
2023-05-09T15:33:14.081Z,100509.44
2023-05-09T15:35:19.257Z,100508.66
2023-05-09T15:37:24.415Z,100509.58
2023-05-09T15:39:29.549Z,100506.2
2023-05-09T15:41:34.747Z,100504.59
2023-05-09T15:43:40.001Z,100498.52
2023-05-09T15:45:45.409Z,100498.96
2023-05-09T15:47:50.896Z,100496.42
2023-05-09T15:49:56.049Z,100493.77
2023-05-09T15:52:01.168Z,100488.95
2023-05-09T15:54:06.394Z,100487
2023-05-09T15:56:11.493Z,100490.64
2023-05-09T15:58:16.596Z,100485.78
2023-05-09T16:00:21.869Z,100481.31
2023-05-09T16:02:27.066Z,100480.42
2023-05-09T16:04:32.442Z,100480.66
2023-05-09T16:06:37.560Z,100474.27
2023-05-09T16:08:42.641Z,100473.39
2023-05-09T16:10:47.724Z,100465.12
2023-05-09T16:12:53.039Z,100465.73
2023-05-09T16:14:58.441Z,100461.3
2023-05-09T16:17:04.903Z,100457.64
2023-05-09T16:19:10.034Z,100460.63
2023-05-09T16:21:15.264Z,100459.77
2023-05-09T16:23:20.428Z,100456.29
2023-05-09T16:25:25.647Z,100445.02
2023-05-09T16:27:30.755Z,100440.11
2023-05-09T16:29:35.891Z,100436.66
2023-05-09T16:31:41.217Z,100431.03
2023-05-09T16:33:46.381Z,100430.98
2023-05-09T16:35:51.486Z,100430.5
2023-05-09T16:37:56.567Z,100425.53
2023-05-09T16:40:01.908Z,100428.06
2023-05-09T16:42:07.190Z,100428.99
2023-05-09T16:44:12.314Z,100423.91
2023-05-09T16:46:17.747Z,100422.84
2023-05-09T16:48:23.118Z,100422.88
2023-05-09T16:50:28.126Z,100424.38
2023-05-09T16:52:33.163Z,100424
2023-05-09T16:54:38.430Z,100419.86
2023-05-09T16:56:43.678Z,100417.59
2023-05-09T16:58:48.772Z,100416.67
2023-05-09T17:00:53.981Z,100415.46
2023-05-09T17:02:59.262Z,100409.81
2023-05-09T17:05:04.604Z,100401.66
2023-05-09T17:07:09.701Z,100402.62
2023-05-09T17:09:14.837Z,100396.32
2023-05-09T17:11:19.902Z,100392.2
2023-05-09T17:13:25.160Z,100388.72
2023-05-09T17:15:30.324Z,100396.06
2023-05-09T17:17:35.526Z,100392.69
2023-05-09T17:19:40.798Z,100394.67
2023-05-09T17:21:45.938Z,100392.77
2023-05-09T17:23:51.109Z,100387.63
2023-05-09T17:25:56.163Z,100389.2
2023-05-09T17:28:01.386Z,100386.88
2023-05-09T17:30:06.532Z,100384.38
2023-05-09T17:32:11.667Z,100380.48
2023-05-09T17:34:16.742Z,100380.2
2023-05-09T17:36:21.808Z,100380.14
2023-05-09T17:38:26.864Z,100380.93
2023-05-09T17:40:31.961Z,100385.7
2023-05-09T17:42:37.020Z,100392.72
2023-05-09T17:44:44.869Z,100393.16
2023-05-09T17:46:50.217Z,100392.12
2023-05-09T17:48:55.351Z,100391.08
2023-05-09T17:51:00.535Z,100390.67
2023-05-09T17:53:05.626Z,100391.41
2023-05-09T17:55:10.831Z,100391.75
2023-05-09T17:57:16.056Z,100390.3
2023-05-09T17:59:21.128Z,100382.67
2023-05-09T18:01:26.473Z,100385.5
2023-05-09T18:03:31.940Z,100388.56
2023-05-09T18:05:37.127Z,100383.36
2023-05-09T18:07:42.242Z,100381.02
2023-05-09T18:09:47.318Z,100383.64
2023-05-09T18:11:52.553Z,100380.25
2023-05-09T18:13:57.657Z,100381.22
2023-05-09T18:16:03.102Z,100379.81
2023-05-09T18:18:08.543Z,100381.75
2023-05-09T18:20:17.226Z,100376.72
2023-05-09T18:22:22.796Z,100381.73
2023-05-09T18:24:27.937Z,100382.63
2023-05-09T18:26:33.093Z,100380.91
2023-05-09T18:28:38.295Z,100385.05
2023-05-09T18:30:43.494Z,100383.86
2023-05-09T18:32:48.728Z,100388.59
2023-05-09T18:34:54.001Z,100391.36
2023-05-09T18:36:59.353Z,100390.83
2023-05-09T18:39:04.469Z,100392.84
2023-05-09T18:41:09.561Z,100392.05
2023-05-09T18:43:14.781Z,100391.63
2023-05-09T18:45:19.965Z,100397.3
2023-05-09T18:47:25.122Z,100400.69
2023-05-09T18:49:30.242Z,100393.77
2023-05-09T18:51:35.531Z,100400.09
2023-05-09T18:53:40.609Z,100394.17
2023-05-09T18:55:45.687Z,100397.56
2023-05-09T18:57:50.901Z,100400.64
2023-05-09T18:59:56.132Z,100401.06
2023-05-09T19:02:01.478Z,100397.81
2023-05-09T19:04:07.074Z,100398.5
2023-05-09T19:06:12.451Z,100397.77
2023-05-09T19:08:17.630Z,100400.45
2023-05-09T19:10:22.814Z,100397.13
2023-05-09T19:12:28.020Z,100400.94
2023-05-09T19:14:33.340Z,100399.97
2023-05-09T19:16:38.415Z,100402.43
2023-05-09T19:18:43.649Z,100398.24
2023-05-09T19:20:48.807Z,100401.81
2023-05-09T19:22:53.864Z,100400.4
2023-05-09T19:24:58.985Z,100400.61
2023-05-09T19:27:04.130Z,100400.08
2023-05-09T19:29:09.587Z,100400.97
2023-05-09T19:31:14.850Z,100394.69
2023-05-09T19:33:20.357Z,100397.14
2023-05-09T19:35:25.578Z,100395.83
2023-05-09T19:37:30.730Z,100390.2
2023-05-09T19:39:36.196Z,100388.95
2023-05-09T19:41:41.304Z,100386.97
2023-05-09T19:43:46.512Z,100389.92
2023-05-09T19:45:51.777Z,100388.69
2023-05-09T19:47:57.216Z,100386.66
2023-05-09T19:50:02.473Z,100388.38
2023-05-09T19:52:07.702Z,100385.94
2023-05-09T19:54:12.890Z,100393.1
2023-05-09T19:56:18.093Z,100393.7
2023-05-09T19:58:23.235Z,100384.03
2023-05-09T20:00:28.403Z,100389.95
2023-05-09T20:02:33.733Z,100390.19
2023-05-09T20:04:39.054Z,100392.17
2023-05-09T20:06:44.278Z,100383.13
2023-05-09T20:08:49.465Z,100382.47
2023-05-09T20:10:54.636Z,100384.58
2023-05-09T20:12:59.832Z,100382.3
2023-05-09T20:15:05.281Z,100382.71
2023-05-09T20:17:10.487Z,100380.24
2023-05-09T20:19:15.596Z,100386.16
2023-05-09T20:21:21.078Z,100387.05
2023-05-09T20:23:26.138Z,100377.25
2023-05-09T20:25:31.351Z,100384.02
2023-05-09T20:27:36.563Z,100382.47
2023-05-09T20:29:41.834Z,100378.59
2023-05-09T20:31:47.197Z,100378.3
2023-05-09T20:33:52.598Z,100373.19
2023-05-09T20:35:57.816Z,100372.02
2023-05-09T20:38:02.990Z,100372.55
2023-05-09T20:40:08.182Z,100375.55
2023-05-09T20:42:14.566Z,100368.19
2023-05-09T20:44:19.667Z,100369.78
2023-05-09T20:46:25.121Z,100366.59
2023-05-09T20:48:30.249Z,100366.56
2023-05-09T20:50:35.340Z,100363.3
2023-05-09T20:52:40.578Z,100367.27
2023-05-09T20:54:45.650Z,100366.2
2023-05-09T20:56:50.864Z,100358.56
2023-05-09T20:58:56.119Z,100355.2
2023-05-09T21:01:01.312Z,100354.16
2023-05-09T21:03:06.831Z,100354.16
2023-05-09T21:05:12.278Z,100353.33
2023-05-09T21:07:17.490Z,100350.89
2023-05-09T21:09:22.633Z,100358.05
2023-05-09T21:11:27.877Z,100348.83
2023-05-09T21:13:32.978Z,100345.5
2023-05-09T21:15:38.161Z,100347.56
2023-05-09T21:17:43.463Z,100348.66
2023-05-09T21:19:48.972Z,100354.6
2023-05-09T21:21:54.126Z,100346.44
2023-05-09T21:23:59.298Z,100349.57
2023-05-09T21:26:04.454Z,100337.83
2023-05-09T21:28:09.938Z,100332.66
2023-05-09T21:30:15.738Z,100332.8
2023-05-09T21:32:21.384Z,100333.45
2023-05-09T21:34:26.492Z,100334.48
2023-05-09T21:36:31.596Z,100329.55
2023-05-09T21:38:36.813Z,100328.63
2023-05-09T21:40:42.675Z,100329.89
2023-05-09T21:42:47.943Z,100323.28
2023-05-09T21:44:53.186Z,100327.16
2023-05-09T21:46:58.483Z,100329.09
2023-05-09T21:49:04.080Z,100327.59
2023-05-09T21:51:09.361Z,100329.71
2023-05-09T21:53:14.636Z,100328.13
2023-05-09T21:55:19.840Z,100329.5
2023-05-09T21:57:25.052Z,100325.23
2023-05-09T21:59:30.202Z,100321.77
2023-05-09T22:01:35.573Z,100327.66
2023-05-09T22:03:40.956Z,100332.26
2023-05-09T22:05:46.306Z,100328.21
2023-05-09T22:07:51.426Z,100324.66
2023-05-09T22:09:56.536Z,100325.17
2023-05-09T22:12:01.725Z,100325.64
2023-05-09T22:14:06.940Z,100329.17
2023-05-09T22:16:12.144Z,100320.81
2023-05-09T22:18:17.446Z,100323.67
2023-05-09T22:20:22.735Z,100321.55
2023-05-09T22:22:27.881Z,100316.84
2023-05-09T22:24:33.126Z,100321.37
2023-05-09T22:26:38.233Z,100318.06
2023-05-09T22:28:43.334Z,100315.43
2023-05-09T22:30:48.854Z,100311.19
2023-05-09T22:32:54.186Z,100313.89
2023-05-09T22:34:59.453Z,100312.22
2023-05-09T22:37:04.564Z,100312.17
2023-05-09T22:39:09.908Z,100315.88
2023-05-09T22:41:15.097Z,100314.5
2023-05-09T22:43:20.359Z,100307.71
2023-05-09T22:45:25.494Z,100300.27
2023-05-09T22:47:30.747Z,100308.86
2023-05-09T22:49:35.996Z,100311.8
2023-05-09T22:51:41.030Z,100310.22
2023-05-09T22:53:46.216Z,100303.88
2023-05-09T22:55:51.890Z,100307.3
2023-05-09T22:57:56.954Z,100303.09
2023-05-09T23:00:01.972Z,100302.88
2023-05-09T23:02:07.288Z,100303.64
2023-05-09T23:04:12.807Z,100302.25
2023-05-09T23:06:17.949Z,100302.27
2023-05-09T23:08:23.070Z,100298.99
2023-05-09T23:10:28.138Z,100299.75
2023-05-09T23:12:33.236Z,100294.19
2023-05-09T23:14:38.333Z,100289.38
2023-05-09T23:16:43.448Z,100286.38
2023-05-09T23:18:48.534Z,100277.88
2023-05-09T23:20:53.759Z,100281.44
2023-05-09T23:22:58.864Z,100282.06
2023-05-09T23:25:03.963Z,100279.13
2023-05-09T23:27:09.561Z,100278.53
2023-05-09T23:29:14.688Z,100274.11
2023-05-09T23:31:19.890Z,100277.61
2023-05-09T23:33:25.166Z,100274.81
2023-05-09T23:35:30.236Z,100276.11
2023-05-09T23:37:35.443Z,100274.88
2023-05-09T23:39:40.675Z,100267.65
2023-05-09T23:41:45.792Z,100270.83
2023-05-09T23:43:50.970Z,100265.69
2023-05-09T23:45:56.005Z,100263.7
2023-05-09T23:48:01.405Z,100261.14
2023-05-09T23:50:06.707Z,100261.34
2023-05-09T23:52:12.201Z,100254.78
2023-05-09T23:54:17.413Z,100260.84
2023-05-09T23:56:22.582Z,100253.98
2023-05-09T23:58:27.859Z,100250.78
